Flight Track Log - Related Links

Times and Time Zones

All times are in EST time to prevent confusion due to time zone crossing. See the CES7338 flight status page for this flight to view local times or setup timezone preferences in your user account.

Time Position Orientation Groundspeed Altitude Reporting Facility
EST Latitude Longitude Course Direction KTS MPH feet Rate Location/Type
Wed 09:09:00 AM 37.9584 122.0256 223° Southwest  Level Estimated
Wed 09:10:00 AM 37.8911 121.9581 218° Southwest  Level Estimated
Wed 09:11:00 AM 37.8237 121.8907 218° Southwest  Level Estimated
Wed 09:12:00 AM 37.7564 121.8234 218° Southwest  Level Estimated
Wed 09:13:00 AM 37.6889 121.7562 218° Southwest  Level Estimated
Wed 09:14:00 AM 37.6215 121.6892 218° Southwest  Level Estimated
Wed 09:15:00 AM 37.5540 121.6223 218° Southwest  Level Estimated
Wed 09:16:00 AM 37.4865 121.5555 218° Southwest  Level Estimated
Wed 09:17:00 AM 37.4189 121.4888 218° Southwest  Level Estimated
Wed 09:18:00 AM 37.3513 121.4222 218° Southwest  Level Estimated
Wed 09:19:00 AM 37.2837 121.3558 218° Southwest  Level Estimated
Wed 09:20:00 AM 37.2160 121.2895 218° Southwest  Level Estimated
Wed 09:21:00 AM 37.1483 121.2233 218° Southwest  Level Estimated
Wed 09:22:00 AM 37.0806 121.1572 218° Southwest  Level Estimated
Wed 09:23:00 AM 37.0128 121.0912 218° Southwest  Level Estimated
Wed 09:24:00 AM 36.9450 121.0254 218° Southwest  Level Estimated
Wed 09:25:00 AM 36.8771 120.9596 218° Southwest  Level Estimated
Wed 09:26:00 AM 36.8092 120.8940 218° Southwest  Level Estimated
Wed 09:27:00 AM 36.7413 120.8285 218° Southwest  Level Estimated
Wed 09:28:00 AM 36.6734 120.7631 218° Southwest  Level Estimated
Wed 09:29:00 AM 36.6054 120.6979 218° Southwest  Level Estimated
Wed 09:30:00 AM 36.5373 120.6327 218° Southwest  Level Estimated
Wed 09:31:00 AM 36.4693 120.5677 218° Southwest  Level Estimated
Wed 09:32:00 AM 36.4012 120.5027 218° Southwest  Level Estimated
Wed 09:33:00 AM 36.3330 120.4379 217° Southwest  Level Estimated
Wed 09:34:00 AM 36.2661 120.3744 217° Southwest  Level Estimated
Wed 09:35:00 AM 36.2661 120.3744 238° Southwest  Level Estimated
Wed 09:36:00 AM 36.2661 120.3744 238° Southwest  Level Estimated
Wed 09:37:00 AM 36.2661 120.3744 238° Southwest  Level Estimated
Wed 09:38:00 AM 36.2661 120.3744 238° Southwest  Level Estimated
Wed 09:39:00 AM 36.2661 120.3744 238° Southwest  Level Estimated
Wed 09:40:00 AM 36.2661 120.3744 238° Southwest  Level Estimated
Wed 09:41:00 AM 36.2661 120.3744 238° Southwest  Level Estimated
Wed 09:42:00 AM 36.2661 120.3744 238° Southwest  Level Estimated
Wed 09:43:00 AM 36.2661 120.3744 238° Southwest  Level Estimated
Wed 09:44:00 AM 36.2661 120.3744 238° Southwest  Level Estimated
Wed 09:45:00 AM 36.2661 120.3744 238° Southwest  Level Estimated
Wed 09:46:00 AM 36.2661 120.3744 238° Southwest  Level Estimated
Wed 09:47:00 AM 36.2661 120.3744 238° Southwest  Level Estimated
Wed 09:48:00 AM 36.2661 120.3744 238° Southwest  Level Estimated
Wed 09:49:00 AM 36.2661 120.3744 238° Southwest  Level Estimated

Login

Don't have an account? Register now (free) for customized features, flight alerts, and more!